sensor_id;sensor_type;location;lat;lon;timestamp;pressure;altitude;pressure_sealevel;temperature;humidity
61474;BME280;53694;49.784;30.150;2022-12-08T00:00:04;99533.83;;;4.99;70.48
61474;BME280;53694;49.784;30.150;2022-12-08T00:01:07;99543.28;;;5.01;69.98
61474;BME280;53694;49.784;30.150;2022-12-08T00:02:09;99534.78;;;5.03;70.23
61474;BME280;53694;49.784;30.150;2022-12-08T00:03:11;99540.53;;;5.10;70.30
61474;BME280;53694;49.784;30.150;2022-12-08T00:04:13;99538.27;;;5.12;70.42
61474;BME280;53694;49.784;30.150;2022-12-08T00:05:14;99552.85;;;5.08;70.25
61474;BME280;53694;49.784;30.150;2022-12-08T00:07:33;99554.93;;;5.11;70.39
61474;BME280;53694;49.784;30.150;2022-12-08T00:08:34;99553.16;;;5.15;69.67
61474;BME280;53694;49.784;30.150;2022-12-08T00:09:39;99554.09;;;5.19;69.36
61474;BME280;53694;49.784;30.150;2022-12-08T00:10:44;99557.42;;;5.24;69.46
61474;BME280;53694;49.784;30.150;2022-12-08T00:11:46;99559.20;;;5.20;68.99
61474;BME280;53694;49.784;30.150;2022-12-08T00:12:47;99554.81;;;4.98;68.98
61474;BME280;53694;49.784;30.150;2022-12-08T00:13:49;99559.05;;;4.70;69.77
61474;BME280;53694;49.784;30.150;2022-12-08T00:14:52;99564.55;;;4.35;70.75
61474;BME280;53694;49.784;30.150;2022-12-08T00:15:59;99559.13;;;4.00;71.85
61474;BME280;53694;49.784;30.150;2022-12-08T00:17:01;99566.27;;;3.62;73.04
61474;BME280;53694;49.784;30.150;2022-12-08T00:18:04;99567.63;;;3.33;74.39
61474;BME280;53694;49.784;30.150;2022-12-08T00:19:05;99564.08;;;3.24;75.37
61474;BME280;53694;49.784;30.150;2022-12-08T00:20:08;99572.55;;;3.31;75.92
61474;BME280;53694;49.784;30.150;2022-12-08T00:21:10;99562.56;;;3.49;75.95
61474;BME280;53694;49.784;30.150;2022-12-08T00:22:12;99562.77;;;3.70;75.71
61474;BME280;53694;49.784;30.150;2022-12-08T00:23:13;99563.09;;;3.94;75.17
61474;BME280;53694;49.784;30.150;2022-12-08T00:24:16;99569.36;;;4.21;74.81
61474;BME280;53694;49.784;30.150;2022-12-08T00:25:17;99560.23;;;4.43;73.76
61474;BME280;53694;49.784;30.150;2022-12-08T00:26:19;99564.33;;;4.66;73.14
61474;BME280;53694;49.784;30.150;2022-12-08T00:27:20;99566.03;;;4.88;72.42
61474;BME280;53694;49.784;30.150;2022-12-08T00:28:22;99565.18;;;5.05;71.28
61474;BME280;53694;49.784;30.150;2022-12-08T00:29:24;99566.43;;;5.16;70.65
61474;BME280;53694;49.784;30.150;2022-12-08T00:30:26;99570.06;;;5.29;70.25
61474;BME280;53694;49.784;30.150;2022-12-08T00:31:27;99567.94;;;5.35;69.24
61474;BME280;53694;49.784;30.150;2022-12-08T00:32:29;99572.55;;;5.43;69.07
61474;BME280;53694;49.784;30.150;2022-12-08T00:33:30;99580.07;;;5.46;68.97
61474;BME280;53694;49.784;30.150;2022-12-08T00:34:32;99571.11;;;5.45;68.72
61474;BME280;53694;49.784;30.150;2022-12-08T00:35:34;99574.21;;;5.35;68.98
61474;BME280;53694;49.784;30.150;2022-12-08T00:36:35;99575.09;;;5.10;68.82
61474;BME280;53694;49.784;30.150;2022-12-08T00:37:37;99570.24;;;4.77;69.38
61474;BME280;53694;49.784;30.150;2022-12-08T00:38:40;99569.02;;;4.40;70.44
61474;BME280;53694;49.784;30.150;2022-12-08T00:39:41;99573.18;;;4.03;71.46
61474;BME280;53694;49.784;30.150;2022-12-08T00:40:45;99575.68;;;3.64;72.58
61474;BME280;53694;49.784;30.150;2022-12-08T00:41:47;99573.23;;;3.37;73.86
61474;BME280;53694;49.784;30.150;2022-12-08T00:42:49;99577.33;;;3.25;74.72
61474;BME280;53694;49.784;30.150;2022-12-08T00:43:50;99575.12;;;3.28;75.24
61474;BME280;53694;49.784;30.150;2022-12-08T00:44:52;99578.33;;;3.38;75.33
61474;BME280;53694;49.784;30.150;2022-12-08T00:45:53;99581.09;;;3.56;74.80
61474;BME280;53694;49.784;30.150;2022-12-08T00:46:55;99580.03;;;3.74;74.60
61474;BME280;53694;49.784;30.150;2022-12-08T00:47:57;99576.22;;;3.92;73.96
61474;BME280;53694;49.784;30.150;2022-12-08T00:48:58;99573.34;;;4.06;73.07
61474;BME280;53694;49.784;30.150;2022-12-08T00:50:00;99581.83;;;4.22;73.03
61474;BME280;53694;49.784;30.150;2022-12-08T00:51:02;99580.69;;;4.40;72.51
61474;BME280;53694;49.784;30.150;2022-12-08T00:52:04;99584.05;;;4.55;71.73
61474;BME280;53694;49.784;30.150;2022-12-08T00:53:05;99589.61;;;4.67;71.27
61474;BME280;53694;49.784;30.150;2022-12-08T00:54:07;99586.08;;;4.75;70.87
61474;BME280;53694;49.784;30.150;2022-12-08T00:55:09;99592.96;;;4.81;70.29
61474;BME280;53694;49.784;30.150;2022-12-08T00:56:10;99592.78;;;4.86;69.97
61474;BME280;53694;49.784;30.150;2022-12-08T00:57:12;99585.57;;;4.90;69.72
61474;BME280;53694;49.784;30.150;2022-12-08T00:58:13;99589.70;;;4.96;69.80
61474;BME280;53694;49.784;30.150;2022-12-08T00:59:15;99589.70;;;4.96;69.59
61474;BME280;53694;49.784;30.150;2022-12-08T01:00:17;99584.63;;;4.86;69.40
61474;BME280;53694;49.784;30.150;2022-12-08T01:01:19;99588.53;;;4.59;69.64
61474;BME280;53694;49.784;30.150;2022-12-08T01:02:21;99583.42;;;4.23;70.25
61474;BME280;53694;49.784;30.150;2022-12-08T01:03:22;99590.09;;;3.82;71.45
61474;BME280;53694;49.784;30.150;2022-12-08T01:04:24;99591.46;;;3.45;72.62
61474;BME280;53694;49.784;30.150;2022-12-08T01:05:25;99591.01;;;3.12;73.84
61474;BME280;53694;49.784;30.150;2022-12-08T01:06:27;99587.59;;;2.97;74.90
61474;BME280;53694;49.784;30.150;2022-12-08T01:07:29;99598.60;;;3.01;75.56
61474;BME280;53694;49.784;30.150;2022-12-08T01:08:31;99599.63;;;3.14;75.58
61474;BME280;53694;49.784;30.150;2022-12-08T01:09:33;99598.60;;;3.32;75.33
61474;BME280;53694;49.784;30.150;2022-12-08T01:10:35;99601.84;;;3.51;74.95
61474;BME280;53694;49.784;30.150;2022-12-08T01:11:37;99603.34;;;3.66;74.02
61474;BME280;53694;49.784;30.150;2022-12-08T01:12:38;99604.17;;;3.84;73.64
61474;BME280;53694;49.784;30.150;2022-12-08T01:13:40;99598.59;;;3.98;73.04
61474;BME280;53694;49.784;30.150;2022-12-08T01:14:42;99595.88;;;4.07;72.39
61474;BME280;53694;49.784;30.150;2022-12-08T01:15:43;99600.86;;;4.22;72.45
61474;BME280;53694;49.784;30.150;2022-12-08T01:16:45;99591.24;;;4.33;71.91
61474;BME280;53694;49.784;30.150;2022-12-08T01:17:47;99596.84;;;4.45;71.53
61474;BME280;53694;49.784;30.150;2022-12-08T01:18:49;99594.94;;;4.55;71.13
61474;BME280;53694;49.784;30.150;2022-12-08T01:19:51;99594.92;;;4.63;70.63
61474;BME280;53694;49.784;30.150;2022-12-08T01:20:53;99600.34;;;4.72;70.47
61474;BME280;53694;49.784;30.150;2022-12-08T01:21:55;99602.72;;;4.82;70.07
61474;BME280;53694;49.784;30.150;2022-12-08T01:22:56;99599.17;;;4.90;69.67
61474;BME280;53694;49.784;30.150;2022-12-08T01:23:59;99592.42;;;4.96;69.23
61474;BME280;53694;49.784;30.150;2022-12-08T01:25:01;99594.02;;;5.06;69.24
61474;BME280;53694;49.784;30.150;2022-12-08T01:26:05;99593.22;;;5.06;68.69
61474;BME280;53694;49.784;30.150;2022-12-08T01:27:07;99592.61;;;4.91;68.67
61474;BME280;53694;49.784;30.150;2022-12-08T01:28:08;99591.08;;;4.64;69.38
61474;BME280;53694;49.784;30.150;2022-12-08T01:29:10;99595.25;;;4.36;70.17
61474;BME280;53694;49.784;30.150;2022-12-08T01:30:13;99599.72;;;4.06;70.89
61474;BME280;53694;49.784;30.150;2022-12-08T01:31:18;99598.08;;;3.70;71.55
61474;BME280;53694;49.784;30.150;2022-12-08T01:32:19;99609.78;;;3.39;72.45
61474;BME280;53694;49.784;30.150;2022-12-08T01:33:21;99603.67;;;3.25;73.49
61474;BME280;53694;49.784;30.150;2022-12-08T01:34:22;99606.70;;;3.23;73.79
61474;BME280;53694;49.784;30.150;2022-12-08T01:35:24;99599.22;;;3.29;73.83
61474;BME280;53694;49.784;30.150;2022-12-08T01:36:30;99605.98;;;3.40;73.83
61474;BME280;53694;49.784;30.150;2022-12-08T01:37:32;99606.66;;;3.55;73.41
61474;BME280;53694;49.784;30.150;2022-12-08T01:38:34;99604.93;;;3.67;73.12
61474;BME280;53694;49.784;30.150;2022-12-08T01:39:35;99604.80;;;3.81;72.56
61474;BME280;53694;49.784;30.150;2022-12-08T01:40:37;99598.42;;;3.94;72.41
61474;BME280;53694;49.784;30.150;2022-12-08T01:41:38;99610.44;;;4.11;71.80
61474;BME280;53694;49.784;30.150;2022-12-08T01:42:40;99604.37;;;4.14;71.03
61474;BME280;53694;49.784;30.150;2022-12-08T01:45:41;99602.28;;;4.37;71.26
61474;BME280;53694;49.784;30.150;2022-12-08T01:46:18;99606.61;;;4.55;70.67
61474;BME280;53694;49.784;30.150;2022-12-08T01:47:21;99609.94;;;4.69;70.42
61474;BME280;53694;49.784;30.150;2022-12-08T01:48:25;99610.42;;;4.80;69.76
61474;BME280;53694;49.784;30.150;2022-12-08T01:49:30;99611.50;;;4.88;69.26
61474;BME280;53694;49.784;30.150;2022-12-08T01:50:33;99605.42;;;4.91;68.99
61474;BME280;53694;49.784;30.150;2022-12-08T01:51:40;99611.20;;;4.89;68.89
61474;BME280;53694;49.784;30.150;2022-12-08T01:52:46;99612.65;;;4.78;69.23
61474;BME280;53694;49.784;30.150;2022-12-08T01:53:49;99603.90;;;4.46;69.28
61474;BME280;53694;49.784;30.150;2022-12-08T06:06:12;99735.91;;;-0.76;100.00
61474;BME280;53694;49.784;30.150;2022-12-08T06:07:14;99740.28;;;-0.85;100.00
61474;BME280;53694;49.784;30.150;2022-12-08T06:08:15;99741.86;;;-0.79;100.00
61474;BME280;53694;49.784;30.150;2022-12-08T06:09:17;99744.19;;;-0.67;100.00
61474;BME280;53694;49.784;30.150;2022-12-08T06:10:18;99744.20;;;-0.43;100.00
61474;BME280;53694;49.784;30.150;2022-12-08T06:11:27;99746.30;;;-0.11;100.00
61474;BME280;53694;49.784;30.150;2022-12-08T06:12:25;99742.59;;;0.28;100.00
61474;BME280;53694;49.784;30.150;2022-12-08T06:13:27;99751.97;;;0.73;100.00
61474;BME280;53694;49.784;30.150;2022-12-08T06:14:28;99748.61;;;1.14;100.00
61474;BME280;53694;49.784;30.150;2022-12-08T06:15:29;99754.44;;;1.54;100.00
61474;BME280;53694;49.784;30.150;2022-12-08T06:16:31;99752.66;;;1.90;100.00
61474;BME280;53694;49.784;30.150;2022-12-08T06:17:33;99753.87;;;2.25;100.00
61474;BME280;53694;49.784;30.150;2022-12-08T06:18:35;99743.05;;;2.62;100.00
61474;BME280;53694;49.784;30.150;2022-12-08T06:19:37;99747.76;;;2.92;98.75
61474;BME280;53694;49.784;30.150;2022-12-08T06:20:39;99752.58;;;3.18;96.36
61474;BME280;53694;49.784;30.150;2022-12-08T06:21:40;99747.77;;;3.37;94.30
61474;BME280;53694;49.784;30.150;2022-12-08T06:22:42;99758.72;;;3.55;92.95
61474;BME280;53694;49.784;30.150;2022-12-08T06:23:49;99764.85;;;3.69;91.43
61474;BME280;53694;49.784;30.150;2022-12-08T06:24:51;99762.53;;;3.85;89.86
61474;BME280;53694;49.784;30.150;2022-12-08T06:25:53;99760.21;;;4.00;88.35
61474;BME280;53694;49.784;30.150;2022-12-08T06:26:55;99761.06;;;4.18;87.18
61474;BME280;53694;49.784;30.150;2022-12-08T06:27:56;99771.02;;;4.32;85.43
61474;BME280;53694;49.784;30.150;2022-12-08T06:28:58;99768.94;;;4.37;83.86
61474;BME280;53694;49.784;30.150;2022-12-08T06:29:59;99767.06;;;4.46;82.72
61474;BME280;53694;49.784;30.150;2022-12-08T06:31:06;99772.81;;;4.54;81.05
61474;BME280;53694;49.784;30.150;2022-12-08T06:32:10;99776.34;;;4.63;80.07
61474;BME280;53694;49.784;30.150;2022-12-08T06:33:11;99767.55;;;4.66;78.55
61474;BME280;53694;49.784;30.150;2022-12-08T06:34:13;99767.39;;;4.71;77.86
61474;BME280;53694;49.784;30.150;2022-12-08T06:35:15;99762.13;;;4.74;76.80
61474;BME280;53694;49.784;30.150;2022-12-08T06:36:18;99763.25;;;4.73;75.46
61474;BME280;53694;49.784;30.150;2022-12-08T06:37:20;99756.52;;;4.71;75.08
61474;BME280;53694;49.784;30.150;2022-12-08T06:38:22;99758.44;;;4.70;74.73
61474;BME280;53694;49.784;30.150;2022-12-08T06:39:23;99763.41;;;4.68;74.24
61474;BME280;53694;49.784;30.150;2022-12-08T06:40:25;99762.61;;;4.68;74.08
61474;BME280;53694;49.784;30.150;2022-12-08T06:41:26;99781.33;;;4.69;74.08
61474;BME280;53694;49.784;30.150;2022-12-08T06:42:28;99767.39;;;4.71;73.74
61474;BME280;53694;49.784;30.150;2022-12-08T06:43:30;99771.74;;;4.72;73.15
61474;BME280;53694;49.784;30.150;2022-12-08T06:44:32;99775.89;;;4.69;72.68
61474;BME280;53694;49.784;30.150;2022-12-08T06:45:33;99781.66;;;4.68;71.90
61474;BME280;53694;49.784;30.150;2022-12-08T06:46:35;99786.13;;;4.64;72.09
61474;BME280;53694;49.784;30.150;2022-12-08T06:47:36;99780.98;;;4.62;72.10
61474;BME280;53694;49.784;30.150;2022-12-08T06:48:38;99787.09;;;4.59;72.04
61474;BME280;53694;49.784;30.150;2022-12-08T06:49:39;99781.64;;;4.59;72.18
61474;BME280;53694;49.784;30.150;2022-12-08T06:50:41;99781.78;;;4.63;72.29
61474;BME280;53694;49.784;30.150;2022-12-08T06:51:43;99777.64;;;4.65;72.06
61474;BME280;53694;49.784;30.150;2022-12-08T06:52:44;99778.61;;;4.69;71.68
61474;BME280;53694;49.784;30.150;2022-12-08T06:53:46;99778.28;;;4.71;71.49
61474;BME280;53694;49.784;30.150;2022-12-08T06:54:47;99778.15;;;4.76;71.44
61474;BME280;53694;49.784;30.150;2022-12-08T06:55:52;99774.77;;;4.79;71.39
61474;BME280;53694;49.784;30.150;2022-12-08T06:56:55;99778.45;;;4.83;71.16
61474;BME280;53694;49.784;30.150;2022-12-08T06:57:56;99781.51;;;4.90;71.01
61474;BME280;53694;49.784;30.150;2022-12-08T06:58:58;99786.32;;;4.93;70.78
61474;BME280;53694;49.784;30.150;2022-12-08T06:59:59;99781.67;;;4.94;70.12
61474;BME280;53694;49.784;30.150;2022-12-08T07:01:07;99792.86;;;4.92;69.69
61474;BME280;53694;49.784;30.150;2022-12-08T07:02:09;99794.31;;;4.90;69.75
61474;BME280;53694;49.784;30.150;2022-12-08T07:03:12;99798.47;;;4.87;69.55
61474;BME280;53694;49.784;30.150;2022-12-08T07:04:13;99797.33;;;4.80;69.61
61474;BME280;53694;49.784;30.150;2022-12-08T07:05:15;99797.31;;;4.62;70.26
61474;BME280;53694;49.784;30.150;2022-12-08T07:06:20;99795.03;;;4.38;70.87
61474;BME280;53694;49.784;30.150;2022-12-08T07:07:22;99794.63;;;3.74;71.99
61474;BME280;53694;49.784;30.150;2022-12-08T07:08:23;99794.63;;;3.74;71.99
61474;BME280;53694;49.784;30.150;2022-12-08T07:09:25;99792.10;;;3.55;72.85
61474;BME280;53694;49.784;30.150;2022-12-08T07:10:27;99794.95;;;3.50;73.62
61474;BME280;53694;49.784;30.150;2022-12-08T07:11:29;99792.42;;;3.54;73.91
61474;BME280;53694;49.784;30.150;2022-12-08T07:12:30;99786.24;;;3.62;73.71
61474;BME280;53694;49.784;30.150;2022-12-08T07:13:32;99795.42;;;3.74;73.92
61474;BME280;53694;49.784;30.150;2022-12-08T07:14:33;99793.08;;;3.90;73.76
61474;BME280;53694;49.784;30.150;2022-12-08T07:15:35;99793.80;;;4.05;73.58
61474;BME280;53694;49.784;30.150;2022-12-08T07:16:36;99798.17;;;4.23;73.49
61474;BME280;53694;49.784;30.150;2022-12-08T07:17:38;99793.91;;;4.39;72.65
61474;BME280;53694;49.784;30.150;2022-12-08T07:18:39;99802.27;;;4.51;71.97
61474;BME280;53694;49.784;30.150;2022-12-08T07:19:41;99805.80;;;4.61;71.76
61474;BME280;53694;49.784;30.150;2022-12-08T07:20:42;99811.25;;;4.69;71.12
61474;BME280;53694;49.784;30.150;2022-12-08T07:21:44;99813.81;;;4.74;70.65
61474;BME280;53694;49.784;30.150;2022-12-08T07:22:50;99809.05;;;4.80;70.11
61474;BME280;53694;49.784;30.150;2022-12-08T07:23:52;99751.38;;;4.43;69.86
61474;BME280;53694;49.784;30.150;2022-12-08T07:24:53;99810.14;;;4.79;69.51
61474;BME280;53694;49.784;30.150;2022-12-08T07:26:00;99816.55;;;4.83;69.86
61474;BME280;53694;49.784;30.150;2022-12-08T07:27:02;99818.47;;;4.83;70.03
61474;BME280;53694;49.784;30.150;2022-12-08T07:28:08;99818.62;;;4.69;69.91
61474;BME280;53694;49.784;30.150;2022-12-08T07:29:10;99823.05;;;4.47;70.32
61474;BME280;53694;49.784;30.150;2022-12-08T07:30:13;99814.16;;;4.24;71.18
61474;BME280;53694;49.784;30.150;2022-12-08T07:31:17;99810.58;;;4.07;71.56
61474;BME280;53694;49.784;30.150;2022-12-08T07:32:19;99818.66;;;3.89;71.51
61474;BME280;53694;49.784;30.150;2022-12-08T07:33:20;99818.42;;;3.77;71.88
61474;BME280;53694;49.784;30.150;2022-12-08T07:34:22;99820.05;;;3.78;72.17
61474;BME280;53694;49.784;30.150;2022-12-08T07:35:23;99818.28;;;3.82;72.35
61474;BME280;53694;49.784;30.150;2022-12-08T07:36:25;99818.04;;;3.92;72.20
61474;BME280;53694;49.784;30.150;2022-12-08T07:37:27;99823.52;;;4.01;71.67
61474;BME280;53694;49.784;30.150;2022-12-08T07:38:29;99818.12;;;4.10;71.01
61474;BME280;53694;49.784;30.150;2022-12-08T07:39:31;99820.72;;;4.23;71.28
61474;BME280;53694;49.784;30.150;2022-12-08T07:40:33;99828.76;;;4.37;70.85
61474;BME280;53694;49.784;30.150;2022-12-08T07:41:34;99833.92;;;4.47;70.49
61474;BME280;53694;49.784;30.150;2022-12-08T07:42:35;99829.48;;;4.60;70.08
61474;BME280;53694;49.784;30.150;2022-12-08T07:43:37;99831.09;;;4.70;69.80
61474;BME280;53694;49.784;30.150;2022-12-08T07:44:39;99833.03;;;4.78;69.64
61474;BME280;53694;49.784;30.150;2022-12-08T07:45:41;99836.27;;;4.89;69.39
61474;BME280;53694;49.784;30.150;2022-12-08T07:46:42;99830.96;;;4.92;68.90
61474;BME280;53694;49.784;30.150;2022-12-08T07:47:44;99830.48;;;4.82;69.13
61474;BME280;53694;49.784;30.150;2022-12-08T07:48:46;99829.16;;;4.62;69.13
61474;BME280;53694;49.784;30.150;2022-12-08T07:49:47;99842.50;;;4.32;69.61
61474;BME280;53694;49.784;30.150;2022-12-08T07:50:49;99836.92;;;3.97;70.20
61474;BME280;53694;49.784;30.150;2022-12-08T07:51:50;99835.42;;;3.60;71.21
61474;BME280;53694;49.784;30.150;2022-12-08T07:52:52;99830.86;;;3.24;72.05
61474;BME280;53694;49.784;30.150;2022-12-08T07:53:53;99837.19;;;2.97;73.18
61474;BME280;53694;49.784;30.150;2022-12-08T07:54:55;99831.97;;;2.87;74.20
61474;BME280;53694;49.784;30.150;2022-12-08T07:55:57;99831.38;;;2.90;74.36
61474;BME280;53694;49.784;30.150;2022-12-08T07:56:59;99840.99;;;2.96;74.31
61474;BME280;53694;49.784;30.150;2022-12-08T07:58:00;99833.13;;;3.09;74.33
61474;BME280;53694;49.784;30.150;2022-12-08T07:59:02;99841.12;;;3.28;74.41
61474;BME280;53694;49.784;30.150;2022-12-08T08:00:05;99836.29;;;3.47;74.25
61474;BME280;53694;49.784;30.150;2022-12-08T08:01:26;99838.70;;;3.71;74.10
61474;BME280;53694;49.784;30.150;2022-12-08T08:02:27;99837.86;;;3.93;72.93
61474;BME280;53694;49.784;30.150;2022-12-08T08:03:29;99849.17;;;4.17;72.22
61474;BME280;53694;49.784;30.150;2022-12-08T08:04:31;99846.70;;;4.38;71.87
61474;BME280;53694;49.784;30.150;2022-12-08T08:05:32;99844.03;;;4.56;71.08
61474;BME280;53694;49.784;30.150;2022-12-08T08:06:34;99852.86;;;4.70;70.33
61474;BME280;53694;49.784;30.150;2022-12-08T08:07:36;99845.69;;;4.83;69.57
61474;BME280;53694;49.784;30.150;2022-12-08T08:08:38;99847.30;;;4.92;69.03
61474;BME280;53694;49.784;30.150;2022-12-08T08:09:39;99844.91;;;4.99;68.38
61474;BME280;53694;49.784;30.150;2022-12-08T08:10:41;99849.88;;;4.97;67.96
61474;BME280;53694;49.784;30.150;2022-12-08T08:11:43;99848.73;;;4.81;67.89
61474;BME280;53694;49.784;30.150;2022-12-08T08:12:44;99845.16;;;4.55;68.25
61474;BME280;53694;49.784;30.150;2022-12-08T08:13:46;99849.35;;;4.21;68.98
61474;BME280;53694;49.784;30.150;2022-12-08T08:14:48;99846.44;;;3.86;70.02
61474;BME280;53694;49.784;30.150;2022-12-08T08:15:49;99845.42;;;3.51;70.96
61474;BME280;53694;49.784;30.150;2022-12-08T08:16:51;99849.19;;;3.19;72.18
61474;BME280;53694;49.784;30.150;2022-12-08T08:17:53;99844.50;;;2.97;73.31
61474;BME280;53694;49.784;30.150;2022-12-08T08:18:54;99847.77;;;2.85;73.47
61474;BME280;53694;49.784;30.150;2022-12-08T08:19:56;99849.36;;;2.86;74.26
61474;BME280;53694;49.784;30.150;2022-12-08T08:20:57;99851.84;;;2.96;73.91
61474;BME280;53694;49.784;30.150;2022-12-08T08:21:59;99841.94;;;3.14;74.01
61474;BME280;53694;49.784;30.150;2022-12-08T08:23:00;99845.81;;;3.36;73.92
61474;BME280;53694;49.784;30.150;2022-12-08T08:24:02;99849.31;;;3.59;72.93
61474;BME280;53694;49.784;30.150;2022-12-08T08:25:05;99846.90;;;3.80;72.61
61474;BME280;53694;49.784;30.150;2022-12-08T08:26:07;99845.58;;;3.99;71.52
61474;BME280;53694;49.784;30.150;2022-12-08T08:27:09;99854.11;;;4.15;71.00
61474;BME280;53694;49.784;30.150;2022-12-08T08:28:10;99846.48;;;4.26;70.19
61474;BME280;53694;49.784;30.150;2022-12-08T08:29:12;99842.86;;;4.39;70.34
61474;BME280;53694;49.784;30.150;2022-12-08T08:30:14;99846.91;;;4.50;69.74
61474;BME280;53694;49.784;30.150;2022-12-08T08:31:16;99853.97;;;4.60;69.03
61474;BME280;53694;49.784;30.150;2022-12-08T08:32:18;99849.17;;;4.66;68.55
61474;BME280;53694;49.784;30.150;2022-12-08T08:33:20;99855.23;;;4.63;67.75
61474;BME280;53694;49.784;30.150;2022-12-08T08:34:22;99845.93;;;4.46;67.92
61474;BME280;53694;49.784;30.150;2022-12-08T08:35:24;99852.87;;;4.21;68.51
61474;BME280;53694;49.784;30.150;2022-12-08T08:36:25;99840.39;;;3.89;69.11
61474;BME280;53694;49.784;30.150;2022-12-08T08:37:27;99848.01;;;3.56;70.09
61474;BME280;53694;49.784;30.150;2022-12-08T08:38:29;99842.52;;;3.25;71.20
61474;BME280;53694;49.784;30.150;2022-12-08T08:39:30;99854.07;;;2.94;72.26
61474;BME280;53694;49.784;30.150;2022-12-08T08:40:32;99844.56;;;2.69;73.19
61474;BME280;53694;49.784;30.150;2022-12-08T08:41:33;99847.67;;;2.63;73.93
61474;BME280;53694;49.784;30.150;2022-12-08T08:42:35;99842.45;;;2.66;74.06
61474;BME280;53694;49.784;30.150;2022-12-08T08:43:37;99855.91;;;2.85;74.25
61474;BME280;53694;49.784;30.150;2022-12-08T08:44:38;99849.52;;;3.04;73.52
61474;BME280;53694;49.784;30.150;2022-12-08T08:45:40;99851.78;;;3.24;73.44
61474;BME280;53694;49.784;30.150;2022-12-08T08:46:41;99852.58;;;3.47;72.85
61474;BME280;53694;49.784;30.150;2022-12-08T08:47:43;99855.28;;;3.69;72.35
61474;BME280;53694;49.784;30.150;2022-12-08T08:48:44;99851.77;;;3.91;71.89
61474;BME280;53694;49.784;30.150;2022-12-08T08:49:46;99855.37;;;4.09;71.06
61474;BME280;53694;49.784;30.150;2022-12-08T08:50:48;99867.44;;;4.25;70.20
61474;BME280;53694;49.784;30.150;2022-12-08T08:51:49;99863.63;;;4.35;69.36
61474;BME280;53694;49.784;30.150;2022-12-08T08:52:51;99861.75;;;4.44;69.04
61474;BME280;53694;49.784;30.150;2022-12-08T08:53:53;99860.65;;;4.54;68.71
61474;BME280;53694;49.784;30.150;2022-12-08T08:54:54;99855.89;;;4.60;68.26
61474;BME280;53694;49.784;30.150;2022-12-08T08:55:56;99856.48;;;4.48;68.21
61474;BME280;53694;49.784;30.150;2022-12-08T08:56:59;99855.45;;;4.26;68.63
61474;BME280;53694;49.784;30.150;2022-12-08T08:58:01;99853.22;;;3.97;69.06
61474;BME280;53694;49.784;30.150;2022-12-08T08:59:02;99848.20;;;3.60;70.08
61474;BME280;53694;49.784;30.150;2022-12-08T09:00:06;99837.09;;;3.25;71.03
61474;BME280;53694;49.784;30.150;2022-12-08T09:01:08;99846.53;;;2.91;72.11
61474;BME280;53694;49.784;30.150;2022-12-08T09:02:15;99846.59;;;2.64;73.14
61474;BME280;53694;49.784;30.150;2022-12-08T09:03:17;99848.38;;;2.55;74.07
61474;BME280;53694;49.784;30.150;2022-12-08T09:04:19;99844.16;;;2.62;74.67
61474;BME280;53694;49.784;30.150;2022-12-08T09:05:21;99845.66;;;2.82;74.75
61474;BME280;53694;49.784;30.150;2022-12-08T09:06:23;99842.98;;;3.05;74.46
61474;BME280;53694;49.784;30.150;2022-12-08T09:07:24;99847.70;;;3.35;73.95
61474;BME280;53694;49.784;30.150;2022-12-08T09:08:26;99849.19;;;3.64;73.19
61474;BME280;53694;49.784;30.150;2022-12-08T09:09:28;99844.23;;;3.88;71.98
61474;BME280;53694;49.784;30.150;2022-12-08T09:10:29;99847.87;;;4.15;71.34
61474;BME280;53694;49.784;30.150;2022-12-08T09:11:32;99852.14;;;4.38;70.73
61474;BME280;53694;49.784;30.150;2022-12-08T09:12:33;99845.30;;;4.58;69.42
61474;BME280;53694;49.784;30.150;2022-12-08T09:13:35;99857.17;;;4.71;68.63
61474;BME280;53694;49.784;30.150;2022-12-08T09:14:37;99849.20;;;4.83;68.47
61474;BME280;53694;49.784;30.150;2022-12-08T09:15:39;99852.73;;;4.92;68.38
61474;BME280;53694;49.784;30.150;2022-12-08T09:16:41;99849.05;;;4.88;68.06
61474;BME280;53694;49.784;30.150;2022-12-08T09:17:43;99853.36;;;4.72;68.08
61474;BME280;53694;49.784;30.150;2022-12-08T09:18:44;99850.87;;;4.44;68.14
61474;BME280;53694;49.784;30.150;2022-12-08T09:19:46;99857.14;;;4.14;68.90
61474;BME280;53694;49.784;30.150;2022-12-08T09:20:47;99848.68;;;3.84;69.72
61474;BME280;53694;49.784;30.150;2022-12-08T09:21:49;99848.94;;;3.51;70.29
61474;BME280;53694;49.784;30.150;2022-12-08T09:22:51;99846.47;;;3.19;71.37
61474;BME280;53694;49.784;30.150;2022-12-08T09:23:54;99857.70;;;2.90;72.32
61474;BME280;53694;49.784;30.150;2022-12-08T09:24:56;99841.66;;;2.66;74.08
61474;BME280;53694;49.784;30.150;2022-12-08T09:25:58;99841.66;;;2.66;74.08
61474;BME280;53694;49.784;30.150;2022-12-08T09:27:00;99837.83;;;2.81;74.66
61474;BME280;53694;49.784;30.150;2022-12-08T09:28:02;99846.02;;;3.03;74.23
61474;BME280;53694;49.784;30.150;2022-12-08T09:29:03;99841.28;;;3.31;73.90
61474;BME280;53694;49.784;30.150;2022-12-08T09:30:06;99837.15;;;3.56;73.12
61474;BME280;53694;49.784;30.150;2022-12-08T09:31:07;99839.41;;;3.85;72.71
61474;BME280;53694;49.784;30.150;2022-12-08T09:32:09;99840.04;;;4.13;71.57
61474;BME280;53694;49.784;30.150;2022-12-08T09:33:11;99834.20;;;4.37;71.03
61474;BME280;53694;49.784;30.150;2022-12-08T09:34:12;99840.66;;;4.59;70.24
61474;BME280;53694;49.784;30.150;2022-12-08T09:35:14;99837.35;;;4.79;69.31
61474;BME280;53694;49.784;30.150;2022-12-08T09:36:16;99843.94;;;4.95;68.49
61474;BME280;53694;49.784;30.150;2022-12-08T09:37:17;99840.59;;;5.07;67.68
61474;BME280;53694;49.784;30.150;2022-12-08T09:38:19;99842.98;;;5.09;67.05
61474;BME280;53694;49.784;30.150;2022-12-08T09:39:21;99839.30;;;4.96;66.62
61474;BME280;53694;49.784;30.150;2022-12-08T09:40:24;99829.50;;;4.69;67.34
61474;BME280;53694;49.784;30.150;2022-12-08T09:41:35;99833.58;;;4.40;67.96
61474;BME280;53694;49.784;30.150;2022-12-08T09:42:43;99836.95;;;4.06;68.96